Estación Meteorológica Peña el Pijo (Robertgarden) [ 02/03/23 03:38:53 CET ]

Fecha Hora Presion(HPa) Temp (°C) Humedad % Rocio (°C) Viento ( m/s) Direccion Lluvia 1Hora(mm) Lluvia 24H(mm) LLuvia Total(mm)
2012-Jul-12 01:01:17 1016.200 16.5 37 1.6         167.83
2012-Jul-12 02:01:17 1016.000 14.9 41 1.7         167.83
2012-Jul-12 03:01:45 1016.000 13.2 43 0.8         167.83
2012-Jul-12 04:03:19 1015.900 12.9 44 0.8         167.83
2012-Jul-12 05:01:13 1015.700 11.9 45 0.3         167.83
2012-Jul-12 06:01:13 1015.900 10.5 48 -0.1         167.83
2012-Jul-12 07:01:13 1016.200 10.1 50 0.2         167.83
2012-Jul-12 08:01:14 1016.700 11.9 52 2.3         167.83
2012-Jul-12 09:01:13 1016.700 18.6 39 4.3         167.83
2012-Jul-12 10:01:11 1016.400 23.9 30 5.3         167.83
2012-Jul-12 11:01:15 1015.900 28.1 24 5.4         167.83
2012-Jul-12 12:01:16 1015.800 32.2 16 2.7 1.4 E     167.83
2012-Jul-12 13:01:16 1015.500 32.2 15 1.6 1.6 NE     167.83
2012-Jul-12 14:01:13 1014.800 35.4 13 2.1 0.4 SSW     167.83
2012-Jul-12 15:01:14 1014.300 35.5 14 3.2         167.83
2012-Jul-12 16:01:12 1013.800 37.3 10 0.6         167.83
2012-Jul-12 17:01:11 1014.200 38.1 - - 1.1 SW     167.83
2012-Jul-12 18:01:16 1014.000 37.5 - - 1.3 WSW     167.83
2012-Jul-12 19:01:13 1014.000 35.8 10 -0.5         167.83
2012-Jul-12 20:01:14 1013.800 33.9 12 -0.0         167.83
2012-Jul-12 21:01:14 1014.500 29.3 14 -1.7 0.9 SW     167.83
2012-Jul-12 22:01:16 1015.100 24.3 22 1.1         167.83
2012-Jul-12 23:01:13 1015.500 19.9 28 0.7         167.83

Temperatura Máxima:38°    Temperatura Mínima:10°
Presión Máxima:1016.700 Hpa    Presión Mínima:1013.800 Hpa


Volver